PWSweather.com
Personal Weather Stations
Station Observations
WA6MVG
Nw Lake Tapps, Auburn, WA 98092

Nw Lake TappsAuburn, WA 98092

Lat: 47.250153, Lon: -122.195483

Elevation: 500

Station Type: Oregon Scientific WMR100a

http://www.wa6mvg.com/wxindex.php

Latest ConditionsUpdated 9:00:00 AM PDT Monday, Oct 15, 2018
Currently Today's Max Today's Min Today's Average
Temperature 38.6°F3.7°C 40.1°F4.5°C 35.6°F2.0°C 37.0°F2.8°C
Dew Point 36.7°F2.6°C 37.1°F2.8°C 33.8°F1.0°C 34.9°F1.6°C
Winds Calm Calm Calm -Calm - - Calm Calm
Wind Gusts -- -- - -
Humidity 93% 93% 89% 92%
Pressure 30.37 in1028.4 mb 30.37 in1028.4 mb 30.35 in1027.8 mb -
Hour Temp Dew Point Humidity Winds Wind Gusts Pressure Precip Precip Rate Daily Precip Total
09:00 AM 38.6°F3.7°C 36.7°F2.6°C 93% Calm Calm -- 30.37 in1028.4 mb - 0.00 in0.0 mm 0.00 in0.0 mm
08:45 AM 37.4°F3.0°C 35.6°F2.0°C 93% Calm Calm -- 30.36 in1028.1 mb - 0.00 in0.0 mm 0.00 in0.0 mm
08:30 AM 36.7°F2.6°C 34.8°F1.6°C 93% Calm Calm -- 30.36 in1028.1 mb - 0.00 in0.0 mm 0.00 in0.0 mm
08:15 AM 36.1°F2.3°C 34.3°F1.3°C 93% Calm Calm -- 30.36 in1028.1 mb - 0.00 in0.0 mm 0.00 in0.0 mm
08:00 AM 35.8°F2.1°C 34.0°F1.1°C 93% Calm Calm -- 30.36 in1028.1 mb - 0.00 in0.0 mm 0.00 in0.0 mm
07:45 AM 35.6°F2.0°C 33.8°F1.0°C 93% Calm Calm -- 30.36 in1028.1 mb - 0.00 in0.0 mm 0.00 in0.0 mm
07:30 AM 35.6°F2.0°C 33.8°F1.0°C 93% Calm Calm -- 30.36 in1028.1 mb - 0.00 in0.0 mm 0.00 in0.0 mm
07:15 AM 35.8°F2.1°C 34.0°F1.1°C 93% Calm Calm -- 30.36 in1028.1 mb - 0.00 in0.0 mm 0.00 in0.0 mm
07:00 AM 35.8°F2.1°C 34.0°F1.1°C 93% Calm Calm -- 30.35 in1027.8 mb - 0.00 in0.0 mm 0.00 in0.0 mm
06:45 AM 35.8°F2.1°C 34.0°F1.1°C 93% Calm Calm -- 30.35 in1027.8 mb - 0.00 in0.0 mm 0.00 in0.0 mm
06:30 AM 35.8°F2.1°C 34.0°F1.1°C 93% Calm Calm -- 30.36 in1028.1 mb - 0.00 in0.0 mm 0.00 in0.0 mm
06:15 AM 35.8°F2.1°C 34.0°F1.1°C 93% Calm Calm -- 30.35 in1027.8 mb - 0.00 in0.0 mm 0.00 in0.0 mm
06:00 AM 36.0°F2.2°C 34.1°F1.2°C 93% Calm Calm -- 30.35 in1027.8 mb - 0.00 in0.0 mm 0.00 in0.0 mm
05:45 AM 36.0°F2.2°C 34.1°F1.2°C 93% Calm Calm -- 30.35 in1027.8 mb - 0.00 in0.0 mm 0.00 in0.0 mm
05:30 AM 36.0°F2.2°C 34.1°F1.2°C 93% Calm Calm -- 30.35 in1027.8 mb - 0.00 in0.0 mm 0.00 in0.0 mm
05:15 AM 36.0°F2.2°C 34.1°F1.2°C 93% Calm Calm -- 30.35 in1027.8 mb - 0.00 in0.0 mm 0.00 in0.0 mm
05:00 AM 36.1°F2.3°C 34.3°F1.3°C 93% Calm Calm -- 30.35 in1027.8 mb - 0.00 in0.0 mm 0.00 in0.0 mm
04:45 AM 36.1°F2.3°C 34.3°F1.3°C 93% Calm Calm -- 30.35 in1027.8 mb - 0.00 in0.0 mm 0.00 in0.0 mm
04:30 AM 36.1°F2.3°C 34.0°F1.1°C 92% Calm Calm -- 30.35 in1027.8 mb - 0.00 in0.0 mm 0.00 in0.0 mm
04:15 AM 36.3°F2.4°C 34.2°F1.2°C 92% Calm Calm -- 30.35 in1027.8 mb - 0.00 in0.0 mm 0.00 in0.0 mm
04:00 AM 36.3°F2.4°C 34.2°F1.2°C 92% Calm Calm -- 30.35 in1027.8 mb - 0.00 in0.0 mm 0.00 in0.0 mm
03:45 AM 36.7°F2.6°C 34.6°F1.4°C 92% Calm Calm -- 30.35 in1027.8 mb - 0.00 in0.0 mm 0.00 in0.0 mm
03:30 AM 36.9°F2.7°C 34.8°F1.6°C 92% Calm Calm -- 30.35 in1027.8 mb - 0.00 in0.0 mm 0.00 in0.0 mm
03:15 AM 36.9°F2.7°C 34.8°F1.6°C 92% Calm Calm -- 30.36 in1028.1 mb - 0.00 in0.0 mm 0.00 in0.0 mm
03:00 AM 37.0°F2.8°C 34.9°F1.6°C 92% Calm Calm -- 30.36 in1028.1 mb - 0.00 in0.0 mm 0.00 in0.0 mm
02:45 AM 37.2°F2.9°C 34.8°F1.6°C 91% Calm Calm -- 30.36 in1028.1 mb - 0.00 in0.0 mm 0.00 in0.0 mm
02:30 AM 37.4°F3.0°C 35.3°F1.8°C 92% Calm Calm -- 30.36 in1028.1 mb - 0.00 in0.0 mm 0.00 in0.0 mm
02:15 AM 37.6°F3.1°C 35.2°F1.8°C 91% Calm Calm -- 30.36 in1028.1 mb - 0.00 in0.0 mm 0.00 in0.0 mm
02:00 AM 37.8°F3.2°C 35.4°F1.9°C 91% Calm Calm -- 30.35 in1027.8 mb - 0.00 in0.0 mm 0.00 in0.0 mm
01:45 AM 38.1°F3.4°C 35.7°F2.1°C 91% Calm Calm -- 30.35 in1027.8 mb - 0.00 in0.0 mm 0.00 in0.0 mm
01:30 AM 38.3°F3.5°C 35.9°F2.2°C 91% Calm Calm -- 30.35 in1027.8 mb - 0.00 in0.0 mm 0.00 in0.0 mm
01:15 AM 38.5°F3.6°C 36.1°F2.3°C 91% Calm Calm -- 30.35 in1027.8 mb - 0.00 in0.0 mm 0.00 in0.0 mm
01:00 AM 38.7°F3.7°C 36.3°F2.4°C 91% Calm Calm -- 30.35 in1027.8 mb - 0.00 in0.0 mm 0.00 in0.0 mm
12:45 AM 39.0°F3.9°C 36.3°F2.4°C 90% Calm Calm -- 30.35 in1027.8 mb - 0.00 in0.0 mm 0.00 in0.0 mm
12:30 AM 39.4°F4.1°C 36.7°F2.6°C 90% Calm Calm -- 30.35 in1027.8 mb - 0.00 in0.0 mm 0.00 in0.0 mm
12:15 AM 39.6°F4.2°C 36.6°F2.6°C 89% Calm Calm -- 30.36 in1028.1 mb - 0.00 in0.0 mm 0.00 in0.0 mm
12:00 AM 40.1°F4.5°C 37.1°F2.8°C 89% Calm Calm -- 30.35 in1027.8 mb - 0.00 in0.0 mm 0.00 in0.0 mm